createdAt,value
2019-01-23T00:00:37.375Z,79.90
2019-01-23T00:01:48.229Z,75.08
2019-01-23T00:02:54.840Z,73.52
2019-01-23T00:04:01.604Z,70.70
2019-01-23T00:05:08.421Z,71.25
2019-01-23T00:06:17.085Z,70.78
2019-01-23T00:07:24.415Z,70.08
2019-01-23T00:08:31.300Z,71.75
2019-01-23T00:09:37.552Z,72.08
2019-01-23T00:10:45.233Z,73.37
2019-01-23T00:11:55.457Z,70.60
2019-01-23T00:13:01.866Z,70.55
2019-01-23T00:14:08.662Z,70.60
2019-01-23T00:15:17.333Z,69.90
2019-01-23T00:16:23.841Z,68.62
2019-01-23T00:17:30.340Z,67.25
2019-01-23T00:18:36.894Z,66.02
2019-01-23T00:19:43.287Z,65.87
2019-01-23T00:20:49.664Z,64.10
2019-01-23T00:21:56.124Z,64.12
2019-01-23T00:23:02.389Z,55.65
2019-01-23T00:24:08.715Z,52.35
2019-01-23T00:25:15.760Z,50.95
2019-01-23T00:26:22.151Z,49.93
2019-01-23T00:27:28.601Z,49.83
2019-01-23T00:28:35.100Z,49.70
2019-01-23T00:29:41.560Z,48.17
2019-01-23T00:30:48.008Z,50.30
2019-01-23T00:31:54.399Z,52.00
2019-01-23T00:33:00.937Z,51.60
2019-01-23T00:34:07.344Z,52.83
2019-01-23T00:35:14.850Z,54.55
2019-01-23T00:36:21.389Z,50.23
2019-01-23T00:37:27.964Z,51.30
2019-01-23T00:38:34.343Z,48.60
2019-01-23T00:39:40.573Z,49.93
2019-01-23T00:40:46.881Z,48.38
2019-01-23T00:41:53.304Z,47.83
2019-01-23T00:42:59.869Z,48.78
2019-01-23T00:44:06.639Z,45.28
2019-01-23T00:45:17.050Z,45.90
2019-01-23T00:46:24.940Z,46.18
2019-01-23T00:47:32.519Z,45.73
2019-01-23T00:48:38.912Z,46.00
2019-01-23T00:49:45.590Z,44.93
2019-01-23T00:50:54.755Z,44.53
2019-01-23T00:52:01.181Z,43.73
2019-01-23T00:53:10.293Z,43.65
2019-01-23T00:54:16.568Z,44.50
2019-01-23T00:56:12.134Z,44.03
2019-01-23T00:57:34.468Z,40.78
2019-01-23T00:58:49.159Z,42.40
2019-01-23T01:00:00.731Z,39.63
2019-01-23T01:01:16.276Z,40.45
2019-01-23T01:02:25.017Z,39.35
2019-01-23T01:03:33.852Z,40.08
2019-01-23T01:04:46.306Z,39.00
2019-01-23T01:05:53.179Z,39.45
2019-01-23T01:07:18.178Z,42.93
2019-01-23T01:08:32.624Z,39.65
2019-01-23T01:10:13.418Z,40.17
2019-01-23T01:11:29.523Z,39.08
2019-01-23T01:13:01.704Z,39.67
2019-01-23T01:14:11.950Z,37.48
2019-01-23T01:15:44.730Z,40.45
2019-01-23T01:17:03.124Z,39.70
2019-01-23T01:18:37.031Z,37.88
2019-01-23T01:19:49.383Z,38.98
2019-01-23T01:20:58.119Z,38.13
2019-01-23T01:22:22.083Z,39.92
2019-01-23T01:24:07.029Z,38.90
2019-01-23T01:25:45.701Z,39.10
2019-01-23T01:28:00.452Z,36.58
2019-01-23T01:29:08.255Z,35.65
2019-01-23T01:30:19.584Z,37.03
2019-01-23T01:31:25.952Z,37.03
2019-01-23T01:32:34.834Z,36.95
2019-01-23T01:33:41.152Z,37.50
2019-01-23T01:34:47.542Z,38.40
2019-01-23T01:35:53.883Z,38.30
2019-01-23T01:37:02.687Z,36.45
2019-01-23T01:38:09.053Z,36.25
2019-01-23T01:39:15.311Z,37.05
2019-01-23T01:40:21.864Z,36.73
2019-01-23T01:41:28.302Z,36.33
2019-01-23T01:42:34.661Z,36.53
2019-01-23T01:43:41.126Z,37.28
2019-01-23T01:44:47.510Z,34.08
2019-01-23T01:45:53.924Z,35.40
2019-01-23T01:47:00.663Z,34.45
2019-01-23T01:48:08.040Z,33.48
2019-01-23T01:49:15.380Z,34.13
2019-01-23T01:50:22.504Z,33.70
2019-01-23T01:51:28.955Z,34.67
2019-01-23T01:52:35.289Z,32.40
2019-01-23T01:53:41.715Z,32.70
2019-01-23T01:54:48.163Z,33.10
2019-01-23T01:55:54.522Z,34.33
2019-01-23T01:57:00.806Z,33.60
2019-01-23T01:58:10.179Z,33.73
2019-01-23T01:59:15.171Z,31.68
2019-01-23T02:00:23.414Z,32.33
2019-01-23T02:01:29.692Z,32.88
2019-01-23T02:02:38.809Z,30.70
2019-01-23T02:03:45.277Z,29.07
2019-01-23T02:04:51.705Z,30.50
2019-01-23T02:06:02.613Z,30.27
2019-01-23T02:07:11.235Z,30.52
2019-01-23T02:08:17.756Z,27.75
2019-01-23T02:09:24.719Z,30.12
2019-01-23T02:10:31.142Z,29.02
2019-01-23T02:11:37.597Z,27.85
2019-01-23T02:12:44.500Z,29.00
2019-01-23T02:13:52.459Z,27.65
2019-01-23T02:14:58.835Z,27.67
2019-01-23T02:16:05.384Z,27.40
2019-01-23T02:17:12.035Z,27.58
2019-01-23T02:18:18.344Z,27.52
2019-01-23T02:19:24.796Z,27.40
2019-01-23T02:20:31.235Z,26.48
2019-01-23T02:21:38.023Z,27.27
2019-01-23T02:22:46.417Z,26.55
2019-01-23T02:23:52.804Z,26.70
2019-01-23T02:24:59.221Z,26.82
2019-01-23T02:26:05.619Z,26.82
2019-01-23T02:27:12.181Z,25.72
2019-01-23T02:28:18.623Z,24.43
2019-01-23T02:29:25.006Z,25.40
2019-01-23T02:30:32.514Z,27.27
2019-01-23T02:31:38.944Z,26.30
2019-01-23T02:32:47.384Z,26.45
2019-01-23T02:33:53.810Z,25.15
2019-01-23T02:35:00.340Z,25.32
2019-01-23T02:36:07.528Z,27.42
2019-01-23T02:37:13.944Z,26.85
2019-01-23T02:38:20.321Z,24.18
2019-01-23T02:39:26.909Z,24.60
2019-01-23T02:40:33.297Z,25.72
2019-01-23T02:41:39.643Z,25.85
2019-01-23T02:42:49.063Z,25.50
2019-01-23T02:43:55.602Z,25.52
2019-01-23T02:45:02.033Z,26.02
2019-01-23T02:46:08.535Z,25.55
2019-01-23T02:47:14.982Z,24.47
2019-01-23T02:48:24.613Z,26.20
2019-01-23T02:49:31.503Z,26.45
2019-01-23T02:50:38.035Z,25.25
2019-01-23T02:51:44.157Z,25.70
2019-01-23T02:52:53.033Z,25.48
2019-01-23T02:54:03.003Z,25.72
2019-01-23T02:55:44.983Z,26.37
2019-01-23T02:56:51.112Z,25.52
2019-01-23T02:58:15.046Z,24.92
2019-01-23T02:59:44.903Z,23.65
2019-01-23T03:00:55.465Z,25.48
2019-01-23T03:02:06.563Z,24.18
2019-01-23T03:03:20.907Z,23.73
2019-01-23T03:04:45.946Z,24.27
2019-01-23T03:05:55.175Z,24.02
2019-01-23T03:07:24.283Z,22.80
2019-01-23T03:09:19.575Z,22.75
2019-01-23T03:10:36.703Z,23.25
2019-01-23T03:11:56.126Z,23.10
2019-01-23T03:13:05.423Z,23.55
2019-01-23T03:14:18.191Z,23.35
2019-01-23T03:15:26.146Z,22.77
2019-01-23T03:16:32.900Z,23.92
2019-01-23T03:17:40.583Z,25.02
2019-01-23T03:19:24.350Z,23.85
2019-01-23T03:20:51.394Z,23.10
2019-01-23T03:22:01.750Z,23.22
2019-01-23T03:23:56.364Z,23.98
2019-01-23T03:25:34.949Z,21.57
2019-01-23T03:27:09.168Z,22.45
2019-01-23T03:28:24.876Z,22.62
2019-01-23T03:29:45.694Z,22.93
2019-01-23T03:31:16.902Z,23.02
2019-01-23T03:32:44.188Z,22.80
2019-01-23T03:33:54.655Z,23.22
2019-01-23T03:35:18.590Z,23.32
2019-01-23T03:37:03.816Z,24.05
2019-01-23T03:38:32.476Z,23.67
2019-01-23T03:41:12.105Z,22.25
2019-01-23T03:44:35.047Z,23.10
2019-01-23T03:46:00.884Z,22.85
2019-01-23T03:47:31.250Z,22.22
2019-01-23T03:49:00.359Z,23.10
2019-01-23T03:50:22.751Z,21.73
2019-01-23T03:52:05.164Z,21.73
2019-01-23T03:53:37.888Z,22.17
2019-01-23T03:55:09.163Z,23.22
2019-01-23T03:57:36.635Z,23.02
2019-01-23T03:59:15.224Z,22.98
2019-01-23T04:00:50.222Z,23.10
2019-01-23T04:02:16.427Z,22.13
2019-01-23T04:03:33.315Z,21.75
2019-01-23T04:05:11.795Z,21.30
2019-01-23T04:06:42.312Z,20.72
2019-01-23T04:08:27.452Z,22.05
2019-01-23T04:09:42.458Z,21.55
2019-01-23T04:10:50.490Z,22.95
2019-01-23T04:11:56.819Z,22.27
2019-01-23T04:13:04.693Z,21.97
2019-01-23T04:14:12.869Z,22.15
2019-01-23T04:15:19.541Z,21.90
2019-01-23T04:16:25.975Z,22.10
2019-01-23T04:17:41.365Z,23.22
2019-01-23T04:18:56.236Z,22.58
2019-01-23T04:20:04.422Z,21.17
2019-01-23T04:21:14.727Z,22.77
2019-01-23T04:22:21.119Z,22.60
2019-01-23T04:23:29.520Z,20.23
2019-01-23T04:24:35.923Z,22.58
2019-01-23T04:25:46.137Z,23.62
2019-01-23T04:26:53.713Z,22.10
2019-01-23T04:28:02.390Z,21.52
2019-01-23T04:29:08.812Z,20.05
2019-01-23T04:30:25.149Z,22.07
2019-01-23T04:31:37.694Z,21.50
2019-01-23T04:32:44.183Z,22.50
2019-01-23T04:33:52.982Z,22.00
2019-01-23T04:34:59.390Z,21.55
2019-01-23T04:36:05.736Z,20.70
2019-01-23T04:37:12.153Z,20.35
2019-01-23T04:38:18.477Z,21.82
2019-01-23T04:39:47.344Z,21.42
2019-01-23T04:40:59.445Z,20.37
2019-01-23T04:42:37.757Z,21.27
2019-01-23T04:43:46.717Z,20.77
2019-01-23T04:44:55.734Z,21.27
2019-01-23T04:46:05.485Z,19.85
2019-01-23T04:47:13.083Z,21.55
2019-01-23T04:48:47.587Z,22.45
2019-01-23T04:50:01.559Z,21.05
2019-01-23T04:52:24.914Z,21.42
2019-01-23T04:54:05.373Z,20.57
2019-01-23T04:55:52.357Z,20.62
2019-01-23T04:57:31.241Z,21.68
2019-01-23T04:58:49.901Z,22.27
2019-01-23T05:00:31.466Z,21.80
2019-01-23T05:01:58.764Z,21.57
2019-01-23T05:03:10.436Z,22.32
2019-01-23T05:04:19.734Z,21.57
2019-01-23T05:05:43.121Z,22.27
2019-01-23T05:06:49.541Z,22.50
2019-01-23T05:07:56.076Z,21.45
2019-01-23T05:09:08.932Z,22.15
2019-01-23T05:10:17.433Z,20.82
2019-01-23T05:11:26.817Z,23.10
2019-01-23T05:12:44.535Z,23.10
2019-01-23T05:13:57.143Z,21.15
2019-01-23T05:15:08.761Z,23.00
2019-01-23T05:16:17.802Z,22.35
2019-01-23T05:17:24.252Z,20.95
2019-01-23T05:18:30.695Z,23.45
2019-01-23T05:19:50.883Z,22.13
2019-01-23T05:21:29.542Z,22.27
2019-01-23T05:22:46.133Z,22.90
2019-01-23T05:25:33.181Z,21.95
2019-01-23T05:28:07.700Z,21.23
2019-01-23T05:29:17.008Z,21.60
2019-01-23T05:30:25.080Z,21.95
2019-01-23T05:31:32.325Z,21.95
2019-01-23T05:32:38.783Z,22.55
2019-01-23T05:34:01.709Z,21.93
2019-01-23T05:35:13.922Z,22.32
2019-01-23T05:36:21.345Z,21.93
2019-01-23T05:37:28.794Z,24.12
2019-01-23T05:38:35.952Z,23.18
2019-01-23T05:39:44.848Z,22.73
2019-01-23T05:40:55.828Z,23.75
2019-01-23T05:42:03.560Z,22.65
2019-01-23T05:45:38.901Z,21.42
2019-01-23T05:46:48.352Z,20.30
2019-01-23T05:47:57.422Z,21.60
2019-01-23T05:49:03.836Z,21.17
2019-01-23T05:50:13.966Z,22.30
2019-01-23T05:51:20.633Z,20.95
2019-01-23T05:52:30.284Z,22.00
2019-01-23T05:53:37.392Z,23.42
2019-01-23T05:54:44.573Z,22.85
2019-01-23T05:55:51.242Z,21.30
2019-01-23T05:57:00.146Z,22.80
2019-01-23T05:58:06.619Z,21.68
2019-01-23T05:59:13.123Z,22.67
2019-01-23T06:00:21.994Z,22.75
2019-01-23T06:01:29.583Z,22.48
2019-01-23T06:02:47.846Z,22.82
2019-01-23T06:03:55.769Z,23.30
2019-01-23T06:05:05.972Z,23.30
2019-01-23T06:06:12.885Z,22.05
2019-01-23T06:07:21.553Z,21.25
2019-01-23T06:08:32.623Z,22.25
2019-01-23T06:09:45.879Z,22.98
2019-01-23T06:10:53.778Z,23.10
2019-01-23T06:12:00.311Z,21.80
2019-01-23T06:13:10.538Z,22.37
2019-01-23T06:14:20.228Z,23.02
2019-01-23T06:15:26.590Z,22.45
2019-01-23T06:16:33.086Z,24.05
2019-01-23T06:17:46.524Z,23.15
2019-01-23T06:18:53.415Z,24.18
2019-01-23T06:20:03.717Z,23.07
2019-01-23T06:21:33.474Z,23.45
2019-01-23T06:22:48.578Z,23.32
2019-01-23T06:24:01.941Z,22.42
2019-01-23T06:25:12.462Z,24.32
2019-01-23T06:26:22.046Z,23.10
2019-01-23T06:27:37.458Z,22.58
2019-01-23T06:29:23.252Z,21.45
2019-01-23T06:30:30.426Z,21.73
2019-01-23T06:31:44.472Z,22.52
2019-01-23T06:33:15.587Z,23.20
2019-01-23T06:34:26.198Z,23.27
2019-01-23T06:35:37.253Z,23.20
2019-01-23T06:37:08.243Z,23.22
2019-01-23T06:38:39.822Z,23.27
2019-01-23T06:39:47.593Z,23.80
2019-01-23T06:40:55.553Z,22.80
2019-01-23T06:42:05.006Z,23.87
2019-01-23T06:43:13.137Z,23.07
2019-01-23T06:44:27.365Z,23.00
2019-01-23T06:45:39.429Z,25.37
2019-01-23T06:46:46.858Z,24.20
2019-01-23T06:48:02.568Z,23.80
2019-01-23T06:49:10.164Z,25.02
2019-01-23T06:50:20.476Z,23.65
2019-01-23T06:51:30.368Z,24.60
2019-01-23T06:53:04.478Z,23.38
2019-01-23T06:54:13.158Z,24.90
2019-01-23T06:55:21.431Z,23.85
2019-01-23T06:56:43.578Z,24.00
2019-01-23T06:58:00.762Z,24.87
2019-01-23T06:59:47.634Z,23.67
2019-01-23T07:01:02.669Z,23.75
2019-01-23T09:53:36.038Z,15.08
2019-01-23T09:54:42.666Z,16.75
2019-01-23T09:55:49.131Z,16.10
2019-01-23T09:56:57.145Z,16.45
2019-01-23T09:58:11.337Z,15.00
2019-01-23T09:59:49.541Z,17.98
2019-01-23T10:01:01.798Z,18.05
2019-01-23T10:02:13.022Z,17.17
2019-01-23T10:03:38.095Z,18.73
2019-01-23T10:05:09.204Z,17.82
2019-01-23T10:06:25.312Z,17.40
2019-01-23T10:07:35.723Z,17.27
2019-01-23T10:09:16.607Z,17.82
2019-01-23T10:10:51.993Z,16.87
2019-01-23T10:12:20.295Z,18.70
2019-01-23T10:13:33.436Z,16.67
2019-01-23T10:15:01.664Z,18.50
2019-01-23T10:18:28.030Z,18.85
2019-01-23T10:19:48.595Z,20.15
2019-01-23T10:21:03.702Z,17.17
2019-01-23T10:22:13.583Z,177.02
2019-01-23T10:23:35.153Z,46.10
2019-01-23T10:25:13.554Z,23.65
2019-01-23T10:26:35.332Z,24.92
2019-01-23T10:27:53.627Z,21.55
2019-01-23T10:29:01.181Z,19.70
2019-01-23T10:30:50.573Z,19.27
2019-01-23T10:32:04.869Z,18.32
2019-01-23T10:33:30.765Z,19.10
2019-01-23T10:34:43.664Z,21.75
2019-01-23T10:35:53.011Z,18.90
2019-01-23T10:37:07.257Z,21.57
2019-01-23T10:38:35.475Z,17.05
2019-01-23T10:39:50.588Z,18.00
2019-01-23T10:41:10.593Z,20.27
2019-01-23T10:42:29.436Z,17.23
2019-01-23T10:43:38.637Z,19.52
2019-01-23T10:45:25.127Z,17.92
2019-01-23T10:46:36.258Z,23.38
2019-01-23T10:47:56.005Z,19.15
2019-01-23T10:49:00.143Z,17.55
2019-01-23T10:50:12.575Z,16.77
2019-01-23T10:51:23.343Z,22.40
2019-01-23T10:52:31.589Z,20.88
2019-01-23T10:54:00.515Z,21.45
2019-01-23T10:55:07.269Z,19.52
2019-01-23T10:56:28.760Z,21.75
2019-01-23T10:57:43.087Z,24.82
2019-01-23T10:59:02.335Z,20.62
2019-01-23T11:00:43.678Z,29.05
2019-01-23T11:01:57.758Z,22.73
2019-01-23T11:03:25.178Z,21.50
2019-01-23T11:04:31.740Z,19.55
2019-01-23T11:05:41.951Z,17.90
2019-01-23T11:06:58.806Z,16.85
2019-01-23T11:08:10.225Z,17.95
2019-01-23T11:09:20.559Z,17.80
2019-01-23T11:10:48.078Z,24.65
2019-01-23T11:12:36.851Z,29.25
2019-01-23T11:13:47.270Z,19.60
2019-01-23T11:15:27.261Z,16.87
2019-01-23T11:17:05.921Z,22.65
2019-01-23T11:18:14.739Z,19.55
2019-01-23T11:19:45.151Z,21.00
2019-01-23T11:22:40.602Z,25.23
2019-01-23T11:23:54.519Z,21.17
2019-01-23T11:25:23.293Z,37.93
2019-01-23T11:26:54.360Z,15.65
2019-01-23T11:28:12.133Z,22.25
2019-01-23T11:29:30.638Z,24.92
2019-01-23T11:30:37.158Z,22.50
2019-01-23T11:31:51.346Z,18.77
2019-01-23T11:32:55.859Z,18.30
2019-01-23T11:34:21.240Z,17.75
2019-01-23T11:36:07.992Z,17.95
2019-01-23T11:37:15.857Z,18.23
2019-01-23T11:38:29.227Z,18.02
2019-01-23T11:39:38.112Z,15.72
2019-01-23T11:40:50.832Z,16.87
2019-01-23T11:42:14.820Z,16.93
2019-01-23T11:43:19.814Z,16.35
2019-01-23T11:44:29.351Z,16.20
2019-01-23T11:45:48.359Z,16.90
2019-01-23T11:47:38.587Z,16.37
2019-01-23T11:48:52.105Z,17.27
2019-01-23T11:50:01.470Z,17.67
2019-01-23T11:51:11.823Z,16.50
2019-01-23T11:52:27.042Z,17.12
2019-01-23T11:53:33.744Z,15.32
2019-01-23T11:54:40.278Z,16.57
2019-01-23T11:55:46.724Z,17.20
2019-01-23T11:56:53.170Z,16.67
2019-01-23T11:58:10.510Z,16.62
2019-01-23T11:59:17.527Z,15.18
2019-01-23T12:00:25.554Z,15.78
2019-01-23T12:01:32.479Z,15.72
2019-01-23T12:02:40.575Z,16.70
2019-01-23T12:03:47.065Z,16.32
2019-01-23T12:04:53.588Z,16.05
2019-01-23T12:06:00.066Z,15.03
2019-01-23T12:07:06.818Z,17.62
2019-01-23T12:08:13.391Z,17.15
2019-01-23T12:09:20.747Z,17.23
2019-01-23T12:10:27.241Z,16.57
2019-01-23T12:11:34.177Z,17.48
2019-01-23T12:12:41.920Z,16.85
2019-01-23T12:13:48.304Z,17.07
2019-01-23T12:14:54.730Z,17.52
2019-01-23T12:16:01.028Z,14.60
2019-01-23T12:17:07.461Z,15.53
2019-01-23T12:18:14.150Z,15.23
2019-01-23T12:19:20.610Z,13.48
2019-01-23T12:20:27.932Z,14.40
2019-01-23T12:21:34.438Z,16.12
2019-01-23T12:22:40.998Z,14.38
2019-01-23T12:23:48.702Z,14.18
2019-01-23T12:24:55.618Z,16.10
2019-01-23T12:26:02.245Z,15.28
2019-01-23T12:27:08.828Z,15.10
2019-01-23T12:28:15.253Z,15.55
2019-01-23T12:29:21.803Z,16.37
2019-01-23T12:30:30.678Z,16.02
2019-01-23T12:31:38.198Z,14.23
2019-01-23T12:32:44.709Z,15.35
2019-01-23T12:33:51.011Z,13.65
2019-01-23T12:34:57.386Z,14.45
2019-01-23T12:36:03.800Z,15.60
2019-01-23T12:37:10.218Z,15.68
2019-01-23T12:38:16.679Z,14.18
2019-01-23T12:39:23.542Z,15.30
2019-01-23T12:40:30.005Z,14.38
2019-01-23T12:41:36.573Z,14.58
2019-01-23T12:42:43.027Z,15.38
2019-01-23T12:43:49.540Z,15.23
2019-01-23T12:44:56.042Z,16.70
2019-01-23T12:46:02.815Z,17.07
2019-01-23T12:47:09.244Z,15.13
2019-01-23T12:48:15.620Z,17.10
2019-01-23T12:49:22.199Z,16.07
2019-01-23T12:50:31.309Z,16.02
2019-01-23T12:51:37.758Z,16.40
2019-01-23T12:52:44.218Z,16.65
2019-01-23T12:53:50.829Z,18.07
2019-01-23T12:54:57.318Z,18.45
2019-01-23T12:56:03.711Z,16.93
2019-01-23T12:57:10.248Z,16.00
2019-01-23T12:58:16.601Z,17.52
2019-01-23T12:59:23.724Z,15.65
2019-01-23T13:00:32.205Z,15.00
2019-01-23T13:01:42.139Z,15.03
2019-01-23T13:02:46.900Z,15.38
2019-01-23T13:03:53.354Z,15.58
2019-01-23T13:04:59.786Z,14.70
2019-01-23T13:06:08.822Z,14.15
2019-01-23T13:07:15.277Z,15.88
2019-01-23T13:08:21.874Z,15.53
2019-01-23T13:09:28.474Z,15.83
2019-01-23T13:10:34.861Z,15.60
2019-01-23T13:11:41.388Z,15.72
2019-01-23T13:12:47.863Z,16.40
2019-01-23T13:13:54.300Z,15.43
2019-01-23T13:15:00.974Z,15.85
2019-01-23T13:16:07.820Z,15.85
2019-01-23T13:17:14.480Z,15.35
2019-01-23T13:18:22.019Z,15.08
2019-01-23T13:19:28.394Z,15.45
2019-01-23T13:20:34.791Z,16.32
2019-01-23T13:21:41.543Z,17.73
2019-01-23T13:22:48.085Z,17.60
2019-01-23T13:23:56.205Z,17.65
2019-01-23T13:25:03.102Z,16.90
2019-01-23T13:26:09.751Z,16.93
2019-01-23T13:27:16.480Z,17.92
2019-01-23T13:28:22.935Z,19.35
2019-01-23T13:29:29.350Z,17.55
2019-01-23T13:30:35.780Z,17.77
2019-01-23T13:31:48.818Z,15.45
2019-01-23T13:32:50.343Z,16.32
2019-01-23T13:33:56.780Z,16.30
2019-01-23T13:35:03.145Z,14.75
2019-01-23T13:36:10.749Z,15.10
2019-01-23T13:37:17.185Z,14.33
2019-01-23T13:38:23.590Z,14.85
2019-01-23T13:39:30.093Z,15.32
2019-01-23T13:40:37.935Z,15.20
2019-01-23T13:41:44.349Z,16.45
2019-01-23T13:42:50.902Z,14.10
2019-01-23T13:43:57.405Z,15.18
2019-01-23T13:45:03.846Z,15.23
2019-01-23T13:46:10.300Z,14.90
2019-01-23T13:47:16.906Z,15.18
2019-01-23T13:48:23.412Z,15.13
2019-01-23T13:49:32.325Z,14.75
2019-01-23T13:50:38.882Z,15.70
2019-01-23T13:51:45.836Z,14.95
2019-01-23T13:52:52.312Z,13.65
2019-01-23T13:53:58.621Z,14.20
2019-01-23T13:55:06.374Z,14.18
2019-01-23T13:56:12.893Z,14.33
2019-01-23T13:57:19.485Z,14.13
2019-01-23T13:58:26.009Z,14.45
2019-01-23T13:59:32.643Z,14.73
2019-01-23T14:00:41.360Z,13.88
2019-01-23T14:01:48.788Z,14.07
2019-01-23T14:02:56.254Z,14.58
2019-01-23T14:04:02.829Z,14.60
2019-01-23T14:05:11.509Z,15.28
2019-01-23T14:06:17.991Z,13.80
2019-01-23T14:07:24.338Z,15.03
2019-01-23T14:08:31.587Z,15.63
2019-01-23T14:09:38.355Z,15.28
2019-01-23T14:10:45.137Z,15.13
2019-01-23T14:11:51.937Z,18.37
2019-01-23T14:12:58.424Z,18.55
2019-01-23T14:14:05.278Z,18.92
2019-01-23T14:15:15.905Z,17.48
2019-01-23T14:16:22.868Z,19.50
2019-01-23T14:17:29.592Z,18.00
2019-01-23T14:18:36.196Z,17.75
2019-01-23T14:19:43.382Z,21.75
2019-01-23T14:20:49.987Z,20.25
2019-01-23T14:21:57.434Z,19.15
2019-01-23T14:23:04.215Z,17.73
2019-01-23T14:24:10.824Z,17.20
2019-01-23T14:25:17.526Z,17.60
2019-01-23T14:26:25.565Z,15.53
2019-01-23T14:27:32.102Z,15.18
2019-01-23T14:28:39.067Z,17.37
2019-01-23T14:29:46.386Z,18.57
2019-01-23T14:30:54.530Z,17.10
2019-01-23T14:32:03.564Z,17.80
2019-01-23T14:33:09.448Z,18.37
2019-01-23T14:34:16.000Z,17.60
2019-01-23T14:35:23.090Z,16.42
2019-01-23T14:36:29.856Z,16.55
2019-01-23T14:37:37.373Z,15.78
2019-01-23T14:38:44.238Z,16.23
2019-01-23T14:39:51.194Z,17.23
2019-01-23T14:40:58.373Z,17.07
2019-01-23T14:42:06.449Z,16.20
2019-01-23T14:43:13.575Z,16.02
2019-01-23T14:44:19.947Z,14.83
2019-01-23T14:45:26.348Z,15.88
2019-01-23T14:46:32.976Z,16.10
2019-01-23T14:47:39.322Z,15.50
2019-01-23T14:48:46.435Z,16.57
2019-01-23T14:49:54.362Z,15.90
2019-01-23T14:51:01.829Z,14.73
2019-01-23T14:52:10.306Z,16.95
2019-01-23T14:53:17.886Z,16.05
2019-01-23T14:54:24.545Z,15.53
2019-01-23T14:55:31.835Z,16.70
2019-01-23T14:56:38.643Z,16.48
2019-01-23T14:57:47.419Z,17.77
2019-01-23T14:58:54.436Z,17.30
2019-01-23T15:00:01.715Z,17.80
2019-01-23T15:01:08.410Z,17.87
2019-01-23T15:02:14.814Z,18.80
2019-01-23T15:03:21.240Z,19.70
2019-01-23T15:04:28.873Z,19.85
2019-01-23T15:05:36.155Z,19.45
2019-01-23T15:06:42.676Z,17.90
2019-01-23T15:07:50.325Z,16.95
2019-01-23T15:08:57.158Z,17.05
2019-01-23T15:10:03.706Z,17.02
2019-01-23T15:11:10.054Z,16.85
2019-01-23T15:12:17.883Z,17.70
2019-01-23T15:13:24.564Z,17.25
2019-01-23T15:14:41.882Z,17.62
2019-01-23T15:15:49.702Z,18.12
2019-01-23T15:17:00.046Z,17.62
2019-01-23T15:18:17.119Z,17.62
2019-01-23T15:19:23.494Z,17.05
2019-01-23T15:20:36.383Z,16.50
2019-01-23T15:21:43.877Z,17.25
2019-01-23T15:22:50.658Z,17.40
2019-01-23T15:23:57.163Z,17.90
2019-01-23T15:25:07.913Z,17.52
2019-01-23T15:26:15.634Z,16.02
2019-01-23T15:27:22.167Z,16.35
2019-01-23T15:28:29.957Z,15.08
2019-01-23T15:29:36.402Z,16.52
2019-01-23T15:30:44.026Z,16.80
2019-01-23T15:31:50.529Z,16.80
2019-01-23T15:32:57.111Z,17.37
2019-01-23T15:34:03.564Z,16.95
2019-01-23T15:35:10.292Z,16.55
2019-01-23T15:36:16.736Z,16.65
2019-01-23T15:37:23.383Z,16.15
2019-01-23T15:38:29.826Z,16.87
2019-01-23T15:39:36.460Z,17.20
2019-01-23T15:40:42.955Z,17.10
2019-01-23T15:41:49.411Z,17.45
2019-01-23T15:42:55.811Z,17.65
2019-01-23T15:44:03.378Z,18.25
2019-01-23T15:45:10.494Z,18.00
2019-01-23T15:46:16.955Z,15.95
2019-01-23T15:47:23.496Z,16.97
2019-01-23T15:48:30.002Z,18.17
2019-01-23T15:49:37.247Z,18.75
2019-01-23T15:50:43.737Z,18.90
2019-01-23T15:51:50.097Z,18.37
2019-01-23T15:52:56.691Z,18.37
2019-01-23T15:54:03.227Z,18.87
2019-01-23T15:55:12.370Z,19.23
2019-01-23T15:56:18.905Z,19.20
2019-01-23T15:57:25.426Z,19.12
2019-01-23T15:58:31.836Z,20.68
2019-01-23T15:59:38.527Z,19.92
2019-01-23T16:00:45.340Z,20.08
2019-01-23T16:01:51.996Z,19.82
2019-01-23T16:02:58.576Z,20.40
2019-01-23T16:04:05.759Z,20.85
2019-01-23T16:05:13.453Z,23.38
2019-01-23T16:06:20.455Z,23.42
2019-01-23T16:07:27.457Z,24.02
2019-01-23T16:08:34.644Z,23.98
2019-01-23T16:09:41.120Z,24.45
2019-01-23T16:10:47.817Z,23.57
2019-01-23T16:11:54.994Z,25.60
2019-01-23T16:13:02.998Z,26.55
2019-01-23T16:14:12.013Z,27.13
2019-01-23T16:15:21.065Z,27.90
2019-01-23T16:16:28.731Z,28.32
2019-01-23T16:17:36.275Z,26.48
2019-01-23T16:18:42.708Z,28.77
2019-01-23T16:19:49.833Z,30.50
2019-01-23T16:20:56.509Z,30.48
2019-01-23T16:22:02.953Z,29.20
2019-01-23T16:23:09.490Z,29.32
2019-01-23T16:24:16.742Z,30.30
2019-01-23T16:25:23.295Z,31.05
2019-01-23T16:26:30.230Z,30.95
2019-01-23T16:27:37.016Z,33.08
2019-01-23T16:28:43.731Z,32.28
2019-01-23T16:29:50.283Z,32.70
2019-01-23T16:30:57.109Z,32.05
2019-01-23T16:32:03.686Z,31.65
2019-01-23T16:33:10.887Z,30.50
2019-01-23T16:34:17.837Z,31.33
2019-01-23T16:35:24.659Z,29.37
2019-01-23T16:36:31.321Z,31.50
2019-01-23T16:37:37.962Z,30.20
2019-01-23T16:38:44.430Z,27.90
2019-01-23T16:39:51.958Z,29.70
2019-01-23T16:40:58.501Z,27.40
2019-01-23T16:42:05.050Z,26.45
2019-01-23T16:43:11.514Z,26.97
2019-01-23T16:44:18.239Z,25.80
2019-01-23T16:45:26.302Z,25.00
2019-01-23T16:46:33.660Z,24.95
2019-01-23T16:47:40.185Z,26.20
2019-01-23T16:48:46.704Z,24.00
2019-01-23T16:49:53.290Z,23.22
2019-01-23T16:50:59.846Z,23.25
2019-01-23T16:52:07.923Z,22.70
2019-01-23T16:53:14.561Z,22.22
2019-01-23T16:54:22.188Z,23.65
2019-01-23T16:55:28.957Z,23.15
2019-01-23T16:56:35.715Z,21.77
2019-01-23T16:57:42.726Z,23.00
2019-01-23T16:58:49.446Z,23.27
2019-01-23T16:59:56.382Z,23.35
2019-01-23T17:01:03.462Z,22.95
2019-01-23T17:02:10.718Z,22.58
2019-01-23T17:03:17.637Z,22.17
2019-01-23T17:04:24.822Z,22.93
2019-01-23T17:05:35.143Z,21.40
2019-01-23T17:06:42.500Z,22.32
2019-01-23T17:07:50.048Z,21.05
2019-01-23T17:08:57.964Z,23.15
2019-01-23T17:10:05.133Z,20.00
2019-01-23T17:11:13.375Z,22.45
2019-01-23T17:12:20.874Z,24.18
2019-01-23T17:13:28.282Z,23.10
2019-01-23T17:14:35.549Z,22.65
2019-01-23T17:15:43.301Z,22.58
2019-01-23T17:16:50.833Z,21.17
2019-01-23T17:17:58.187Z,21.23
2019-01-23T17:19:06.763Z,21.45
2019-01-23T17:20:18.358Z,20.37
2019-01-23T17:21:34.316Z,20.72
2019-01-23T17:22:52.221Z,20.15
2019-01-23T17:24:00.480Z,20.68
2019-01-23T17:25:08.355Z,19.67
2019-01-23T17:26:15.446Z,20.05
2019-01-23T17:27:22.112Z,20.35
2019-01-23T17:28:29.696Z,20.65
2019-01-23T17:29:37.432Z,19.55
2019-01-23T17:30:45.316Z,20.35
2019-01-23T17:31:55.496Z,18.80
2019-01-23T17:33:03.718Z,19.25
2019-01-23T17:34:17.109Z,20.02
2019-01-23T17:35:26.918Z,19.05
2019-01-23T17:36:41.020Z,20.05
2019-01-23T17:37:50.869Z,18.65
2019-01-23T17:38:58.232Z,20.37
2019-01-23T17:40:06.299Z,20.97
2019-01-23T17:41:16.758Z,21.50
2019-01-23T17:42:23.890Z,20.52
2019-01-23T17:43:31.246Z,19.52
2019-01-23T17:44:38.064Z,21.52
2019-01-23T17:45:48.262Z,20.00
2019-01-23T17:46:55.241Z,20.75
2019-01-23T17:48:11.535Z,20.82
2019-01-23T17:49:28.189Z,19.40
2019-01-23T17:50:36.593Z,20.97
2019-01-23T17:51:43.434Z,21.55
2019-01-23T17:52:50.720Z,21.02
2019-01-23T17:53:58.462Z,21.70
2019-01-23T17:55:08.027Z,24.75
2019-01-23T17:56:14.905Z,27.55
2019-01-23T17:57:21.880Z,29.45
2019-01-23T17:58:28.910Z,29.72
2019-01-23T17:59:35.870Z,25.92
2019-01-23T18:00:48.678Z,31.10
2019-01-23T18:01:55.686Z,27.48
2019-01-23T18:03:21.281Z,28.35
2019-01-23T18:04:28.098Z,27.80
2019-01-23T18:05:35.063Z,26.02
2019-01-23T18:06:41.995Z,24.67
2019-01-23T18:07:49.065Z,25.02
2019-01-23T18:08:59.629Z,23.47
2019-01-23T18:10:07.393Z,23.30
2019-01-23T18:11:14.287Z,21.35
2019-01-23T18:12:22.212Z,21.82
2019-01-23T18:13:29.249Z,20.80
2019-01-23T18:14:36.114Z,20.45
2019-01-23T18:15:42.958Z,20.10
2019-01-23T18:16:49.928Z,20.62
2019-01-23T18:17:56.816Z,20.80
2019-01-23T18:19:03.566Z,20.72
2019-01-23T18:20:16.717Z,20.50
2019-01-23T18:21:23.638Z,19.82
2019-01-23T18:22:30.564Z,20.55
2019-01-23T18:23:37.424Z,20.30
2019-01-23T18:24:44.251Z,20.45
2019-01-23T18:25:51.286Z,20.48